Terminal Aerodrome Forecast
Issued by NWS Omaha/Valley, NE

Home | Current Version | Previous Version | Text Only | Print | Product List | Glossary Off
Versions: 1 2 3 4 5 6 7 8 9 10 11 12 13 14 15 16 17 18 19 20 21 22 23 24 25 26 27 28 29 30 31 32 33 34 35 36 37 38 39 40 41

000
FTUS43 KOAX 171121
TAFOFK
TAF
KOFK 171121Z 1712/1812 18011G17KT P6SM OVC011
     FM171600 24009KT P6SM OVC035
     FM171800 27009KT P6SM BKN110
     FM172300 34008KT P6SM BKN110
     FM180600 34014KT P6SM OVC007 PROB30 1806/1812 5SM -RA=

USA.gov is the U.S. government's official web portal to all federal, state and local government web resources and services.